West Byfleet, United Kingdom
Current Conditions -  °F | °C
As of 5:20 PM on Sunday 21 Dec 2014 (Local Time) from EGLL Reporting Station
Scattered Clouds Scattered Clouds  
Wind Chill: 50°   Ceiling: Unl
Heat Index: 50°   Visibility: 6mi
Dew Point: 45°   Wind: 15mph
Humidity: 82%   Direction: 240°WSW
Pressure: 30.21"   Gusts: 29mph
Location:  51.33°N, 0.51°W
Report Text: EGLL 211720Z 24013G25KT 9999 FEW020 SCT025 10/07 Q1023 NOSIG
Loading
Personal Weather Stations






























Interactive Weather Map New forecast layout! Learn more

10-Day Weather Forecast

Advertisements
Track Severe Weather on mobile